Terminal Aerodrome Forecast
Issued by NWS

Home | Current Version | Previous Version | Text Only | Print | Product List | Glossary On
Versions: 1 2 3 4 5 6 7 8 9 10 11 12 13 14 15 16
000
FTUS44 KBMX 010540
TAFANB
TAF
KANB 010540Z 0106/0206 21010KT 6SM RA BKN015 OVC035
      TEMPO 0107/0111 2SM RA OVC015
     FM011400 24015G20KT P6SM BKN050
     FM011800 23017G22KT P6SM SKC
     FM020300 23003KT P6SM SKC=

USA.gov is the U.S. government's official web portal to all federal, state and local government web resources and services.